Time;durP1;ratioP1;P1;durP2;ratioP2;P2;SDS_P1;SDS_P2;PMS_P1;PMS_P2;Temp;Humidity;BMP_temperature;BMP_pressure;BME280_temperature;BME280_humidity;BME280_pressure;Samples;Min_cycle;Max_cycle;Signal;HPM_P1;HPM_P2
2024/02/14 00:00:24;;;;;;;8.32;2.22;;;14.20;68.30;;;;;;4642141;30;20571;-76
2024/02/14 00:03:09;;;;;;;7.57;3.80;;;14.20;68.30;;;;;;4653035;30;20106;-77
2024/02/14 00:05:57;;;;;;;6.32;2.70;;;14.20;68.30;;;;;;4647938;30;20057;-77
2024/02/14 00:08:41;;;;;;;7.25;2.40;;;14.20;68.40;;;;;;4647910;30;20085;-77
2024/02/14 00:11:25;;;;;;;6.78;2.75;;;14.10;68.20;;;;;;4646615;30;20507;-77
2024/02/14 00:14:10;;;;;;;9.35;2.58;;;14.10;68.30;;;;;;4630325;30;20563;-75
2024/02/14 00:16:54;;;;;;;9.30;2.75;;;14.10;68.30;;;;;;4634783;30;20081;-75
2024/02/14 00:19:39;;;;;;;5.50;2.45;;;14.10;68.30;;;;;;4633659;30;20068;-75
2024/02/14 00:22:24;;;;;;;9.93;2.65;;;14.10;68.30;;;;;;4644067;30;20093;-75
2024/02/14 00:25:09;;;;;;;5.13;2.80;;;14.10;68.40;;;;;;4637236;30;20109;-76
2024/02/14 00:27:54;;;;;;;5.78;2.15;;;14.10;68.40;;;;;;4633392;30;20058;-75
2024/02/14 00:30:38;;;;;;;8.70;2.90;;;14.10;68.40;;;;;;4648412;30;20057;-75
2024/02/14 00:33:23;;;;;;;7.43;3.28;;;14.10;68.40;;;;;;4634176;30;20421;-75
2024/02/14 00:36:07;;;;;;;4.78;2.05;;;14.10;68.50;;;;;;4643891;30;20057;-76
2024/02/14 00:38:52;;;;;;;7.55;2.67;;;14.10;68.50;;;;;;4646883;30;20065;-76
2024/02/14 00:41:36;;;;;;;7.63;2.15;;;14.10;68.50;;;;;;4646794;30;20128;-75
2024/02/14 00:44:22;;;;;;;8.18;2.45;;;14.10;68.50;;;;;;4635434;30;20426;-76
2024/02/14 00:47:06;;;;;;;8.70;2.60;;;14.00;68.40;;;;;;4647399;30;20049;-76
2024/02/14 00:49:51;;;;;;;4.40;2.08;;;14.00;68.40;;;;;;4641184;30;20406;-75
2024/02/14 00:52:36;;;;;;;8.23;2.00;;;14.00;68.50;;;;;;4646487;30;20065;-75
2024/02/14 00:55:20;;;;;;;4.40;1.88;;;14.10;68.70;;;;;;4642098;30;20070;-75
2024/02/14 00:58:05;;;;;;;8.15;2.63;;;14.10;68.70;;;;;;4641231;30;20049;-75
2024/02/14 01:00:49;;;;;;;4.45;1.70;;;14.00;68.50;;;;;;4645471;30;20456;-77
2024/02/14 01:03:34;;;;;;;5.68;2.08;;;14.00;68.50;;;;;;4654357;30;20121;-77
2024/02/14 01:06:19;;;;;;;7.57;2.70;;;14.10;68.70;;;;;;4652992;30;20284;-75
2024/02/14 01:09:04;;;;;;;6.55;1.70;;;14.00;68.60;;;;;;4639472;30;20054;-75
2024/02/14 01:11:50;;;;;;;6.05;2.13;;;14.10;68.80;;;;;;4630693;30;20066;-74
2024/02/14 01:14:34;;;;;;;5.68;1.80;;;14.00;68.60;;;;;;4643750;30;20287;-74
2024/02/14 01:17:19;;;;;;;6.20;2.03;;;14.00;68.60;;;;;;4638312;30;20065;-74
2024/02/14 01:20:08;;;;;;;7.65;1.80;;;14.00;68.60;;;;;;4644374;30;20072;-74
2024/02/14 01:22:53;;;;;;;6.50;2.30;;;14.10;68.90;;;;;;4651686;30;20442;-74
2024/02/14 01:25:37;;;;;;;5.07;1.77;;;14.10;68.90;;;;;;4642757;30;20344;-74
2024/02/14 01:28:22;;;;;;;5.57;1.50;;;14.00;68.70;;;;;;4635580;30;20081;-74
2024/02/14 01:31:11;;;;;;;3.67;1.67;;;14.00;68.70;;;;;;4647586;30;20099;-74
2024/02/14 01:33:59;;;;;;;4.68;1.52;;;14.00;68.80;;;;;;4653979;30;20271;-76
2024/02/14 01:36:43;;;;;;;4.30;1.60;;;14.00;68.80;;;;;;4646009;30;20483;-76
2024/02/14 01:39:28;;;;;;;6.22;2.17;;;14.00;68.80;;;;;;4647458;30;20045;-74
2024/02/14 01:42:12;;;;;;;5.55;1.60;;;14.00;68.90;;;;;;4651416;30;20093;-77
2024/02/14 01:44:58;;;;;;;4.75;1.50;;;14.00;68.90;;;;;;4651152;30;20570;-76
2024/02/14 01:47:43;;;;;;;4.82;1.40;;;14.00;68.90;;;;;;4651738;30;20575;-76
2024/02/14 01:50:31;;;;;;;4.55;1.75;;;14.00;69.00;;;;;;4648499;30;20268;-75
2024/02/14 01:53:16;;;;;;;4.68;1.33;;;14.00;69.00;;;;;;4650845;30;20045;-75
2024/02/14 01:56:00;;;;;;;5.85;1.50;;;14.00;69.00;;;;;;4646357;30;20137;-76
2024/02/14 01:58:46;;;;;;;4.80;1.73;;;14.00;69.10;;;;;;4646854;30;20591;-76
2024/02/14 02:01:31;;;;;;;4.00;1.52;;;14.00;69.10;;;;;;4632099;30;20048;-77
2024/02/14 02:04:16;;;;;;;3.03;1.20;;;14.00;69.10;;;;;;4649854;30;20109;-75
2024/02/14 02:07:01;;;;;;;4.88;2.03;;;14.00;69.10;;;;;;4644603;30;20117;-76
2024/02/14 02:09:46;;;;;;;4.38;2.08;;;14.00;69.10;;;;;;4636157;30;20111;-75
2024/02/14 02:12:30;;;;;;;4.10;1.13;;;14.00;69.10;;;;;;4646484;30;20334;-75
2024/02/14 02:15:16;;;;;;;3.08;0.95;;;14.00;69.10;;;;;;4640045;30;20506;-75
2024/02/14 02:18:02;;;;;;;5.45;2.20;;;14.00;69.10;;;;;;4644859;30;20541;-76
2024/02/14 02:20:46;;;;;;;4.60;1.75;;;14.00;69.10;;;;;;4648101;30;20105;-76
2024/02/14 02:23:31;;;;;;;3.60;1.30;;;14.00;69.20;;;;;;4645633;30;20143;-77
2024/02/14 02:26:16;;;;;;;2.75;1.25;;;14.00;69.20;;;;;;4649899;30;20059;-76
2024/02/14 02:29:02;;;;;;;2.67;0.98;;;14.00;69.20;;;;;;4635044;30;20053;-74
2024/02/14 02:31:46;;;;;;;2.97;0.95;;;13.90;69.10;;;;;;4655319;30;20065;-75
2024/02/14 02:34:31;;;;;;;4.72;1.20;;;13.90;69.20;;;;;;4646412;30;20038;-76
2024/02/14 02:37:16;;;;;;;5.93;2.30;;;13.90;69.20;;;;;;4647745;30;20513;-76
2024/02/14 02:40:00;;;;;;;3.30;1.00;;;13.90;69.30;;;;;;4648173;30;20281;-75
2024/02/14 02:42:45;;;;;;;3.03;1.10;;;13.90;69.30;;;;;;4649968;30;20185;-76
2024/02/14 02:45:29;;;;;;;3.33;1.00;;;13.90;69.30;;;;;;4653657;30;20053;-76
2024/02/14 02:48:13;;;;;;;3.65;0.77;;;13.90;69.30;;;;;;4650142;30;21657;-75
2024/02/14 02:50:58;;;;;;;2.90;1.20;;;13.90;69.40;;;;;;4645292;30;20082;-76
2024/02/14 02:53:43;;;;;;;3.20;1.15;;;13.90;69.40;;;;;;4637494;30;20046;-76
2024/02/14 02:56:27;;;;;;;4.50;1.00;;;14.00;69.60;;;;;;4653710;30;20120;-76
2024/02/14 02:59:13;;;;;;;4.10;1.48;;;14.00;69.60;;;;;;4651892;30;20129;-75
2024/02/14 03:01:58;;;;;;;2.30;0.80;;;13.90;69.40;;;;;;4637066;30;20197;-75
2024/02/14 03:04:43;;;;;;;3.42;1.50;;;13.90;69.40;;;;;;4654259;30;20521;-75
2024/02/14 03:07:28;;;;;;;2.35;0.88;;;13.90;69.40;;;;;;4652064;30;20048;-75
2024/02/14 03:10:13;;;;;;;2.92;1.23;;;13.90;69.40;;;;;;4650294;30;20053;-75
2024/02/14 03:12:57;;;;;;;3.33;0.95;;;13.90;69.50;;;;;;4626279;30;20134;-75
2024/02/14 03:15:46;;;;;;;1.45;0.80;;;13.90;69.50;;;;;;4639093;30;20404;-75
2024/02/14 03:18:30;;;;;;;1.55;0.50;;;14.00;69.70;;;;;;4653590;30;20046;-75
2024/02/14 03:21:15;;;;;;;3.33;0.80;;;13.90;69.50;;;;;;4628455;30;20054;-75
2024/02/14 03:24:00;;;;;;;2.17;0.80;;;13.90;69.50;;;;;;4654811;30;20415;-74
2024/02/14 03:26:44;;;;;;;3.05;0.80;;;13.90;69.60;;;;;;4637985;30;20150;-73
2024/02/14 03:29:28;;;;;;;1.30;0.60;;;13.90;69.60;;;;;;4646152;30;20578;-77
2024/02/14 03:32:13;;;;;;;3.35;1.20;;;13.90;69.60;;;;;;4643991;30;20100;-76
2024/02/14 03:34:58;;;;;;;1.02;0.50;;;13.90;69.60;;;;;;4635361;30;20049;-77
2024/02/14 03:37:48;;;;;;;2.78;0.95;;;13.90;70.20;;;;;;4648465;30;20304;-77
2024/02/14 03:40:33;;;;;;;4.38;0.75;;;13.90;69.70;;;;;;4649654;30;20514;-76
2024/02/14 03:43:17;;;;;;;2.15;0.50;;;13.90;69.70;;;;;;4643053;30;20038;-76
2024/02/14 03:46:02;;;;;;;2.35;0.80;;;13.90;69.80;;;;;;4648594;30;20049;-76
2024/02/14 03:48:47;;;;;;;4.35;0.60;;;13.90;69.80;;;;;;4646765;30;20269;-76
2024/02/14 03:51:31;;;;;;;2.42;0.70;;;13.90;69.80;;;;;;4644459;30;20065;-76
2024/02/14 03:54:16;;;;;;;1.70;0.80;;;13.90;69.80;;;;;;4652169;30;20169;-76
2024/02/14 03:57:00;;;;;;;2.00;0.80;;;13.90;69.80;;;;;;4644802;30;20062;-77
2024/02/14 03:59:46;;;;;;;2.45;0.57;;;14.00;70.00;;;;;;4629391;30;20126;-76
2024/02/14 04:02:31;;;;;;;2.45;0.68;;;13.90;69.80;;;;;;4649284;30;20149;-77
2024/02/14 04:05:15;;;;;;;2.92;0.88;;;14.00;70.00;;;;;;4643208;30;20077;-77
2024/02/14 04:08:01;;;;;;;3.38;0.88;;;14.00;70.00;;;;;;4650295;30;20527;-77
2024/02/14 04:10:45;;;;;;;1.55;0.65;;;14.00;70.00;;;;;;4655198;30;20992;-77
2024/02/14 04:13:30;;;;;;;1.13;0.60;;;14.00;70.00;;;;;;4652068;30;20455;-78
2024/02/14 04:16:18;;;;;;;5.38;1.30;;;14.00;70.00;;;;;;4656596;30;20089;-76
2024/02/14 04:19:03;;;;;;;4.50;1.10;;;14.00;70.10;;;;;;4647348;30;20064;-75
2024/02/14 04:21:49;;;;;;;1.92;0.82;;;14.00;70.10;;;;;;4640332;30;20424;-77
2024/02/14 04:24:34;;;;;;;2.95;0.95;;;13.90;69.90;;;;;;4640065;30;20089;-77
2024/02/14 04:27:18;;;;;;;2.40;0.80;;;13.90;70.00;;;;;;4644830;30;20065;-76
2024/02/14 04:30:03;;;;;;;3.20;1.75;;;13.90;70.00;;;;;;4652476;30;20772;-77
2024/02/14 04:32:49;;;;;;;2.20;0.80;;;14.00;70.20;;;;;;4643425;30;20045;-77
2024/02/14 04:35:33;;;;;;;2.05;0.70;;;14.00;70.20;;;;;;4641020;30;20152;-77
2024/02/14 04:38:19;;;;;;;2.35;0.70;;;13.90;70.10;;;;;;4655900;30;20053;-77
2024/02/14 04:41:06;;;;;;;4.07;1.25;;;13.90;70.10;;;;;;4659234;30;20515;-76
2024/02/14 04:43:50;;;;;;;2.38;0.80;;;13.90;70.10;;;;;;4644286;30;20527;-76
2024/02/14 04:46:35;;;;;;;2.10;0.77;;;13.90;70.20;;;;;;4651016;30;20483;-77
2024/02/14 04:49:19;;;;;;;2.17;1.35;;;13.90;70.20;;;;;;4654744;30;20125;-77
2024/02/14 04:52:04;;;;;;;1.80;0.90;;;14.00;70.30;;;;;;4644021;30;20064;-79
2024/02/14 04:54:50;;;;;;;2.83;0.90;;;14.00;70.30;;;;;;4645069;30;20111;-77
2024/02/14 04:57:36;;;;;;;5.20;0.80;;;13.90;70.10;;;;;;4647426;30;20037;-78
2024/02/14 05:00:21;;;;;;;4.88;1.27;;;13.90;70.20;;;;;;4642691;30;20074;-78
2024/02/14 05:03:06;;;;;;;3.75;0.90;;;14.00;70.30;;;;;;4655394;30;20097;-77
2024/02/14 05:05:51;;;;;;;2.45;1.00;;;14.00;70.30;;;;;;4655338;30;20573;-78
2024/02/14 05:08:35;;;;;;;2.85;1.05;;;14.00;70.30;;;;;;4644630;30;20494;-77
2024/02/14 05:11:20;;;;;;;3.58;0.55;;;14.00;70.40;;;;;;4645745;30;20412;-76
2024/02/14 05:14:04;;;;;;;1.92;0.63;;;14.00;70.40;;;;;;4646086;30;20126;-76
2024/02/14 05:16:49;;;;;;;3.00;0.80;;;14.00;70.40;;;;;;4655382;30;20526;-76
2024/02/14 05:19:33;;;;;;;1.67;0.50;;;14.00;70.50;;;;;;4651655;30;20577;-76
2024/02/14 05:22:18;;;;;;;3.83;1.30;;;14.00;70.50;;;;;;4657132;30;20097;-77
2024/02/14 05:25:04;;;;;;;2.90;0.85;;;13.90;70.60;;;;;;4632338;30;20189;-78
2024/02/14 05:27:48;;;;;;;2.70;0.90;;;13.90;70.40;;;;;;4644208;30;20565;-77
2024/02/14 05:30:36;;;;;;;2.25;0.93;;;13.90;70.50;;;;;;4656864;30;20607;-77
2024/02/14 05:33:22;;;;;;;1.70;0.70;;;14.00;70.70;;;;;;4643436;30;20759;-77
2024/02/14 05:36:06;;;;;;;2.25;0.88;;;13.90;70.60;;;;;;4643852;30;20098;-75
2024/02/14 05:38:52;;;;;;;2.40;0.98;;;13.90;70.60;;;;;;4643901;30;20133;-76
2024/02/14 05:41:37;;;;;;;2.97;1.08;;;13.90;70.60;;;;;;4656627;30;20105;-76
2024/02/14 05:44:22;;;;;;;2.42;1.02;;;13.90;70.60;;;;;;4656346;30;20487;-76
2024/02/14 05:47:07;;;;;;;2.83;0.70;;;13.90;70.70;;;;;;4643231;30;20397;-76
2024/02/14 05:49:52;;;;;;;1.83;0.90;;;13.90;71.30;;;;;;4651175;30;20069;-77
2024/02/14 05:52:36;;;;;;;3.40;0.93;;;13.90;70.70;;;;;;4655928;30;20116;-76
2024/02/14 05:55:20;;;;;;;1.38;0.93;;;13.90;70.80;;;;;;4656069;30;20119;-75
2024/02/14 05:58:08;;;;;;;1.33;0.60;;;13.90;70.80;;;;;;4657194;30;20185;-76
2024/02/14 06:00:52;;;;;;;3.78;1.00;;;13.90;70.90;;;;;;4657563;30;20057;-75
2024/02/14 06:03:37;;;;;;;2.50;0.70;;;13.90;70.80;;;;;;4659726;30;20872;-75
2024/02/14 06:06:21;;;;;;;1.75;0.50;;;13.90;70.90;;;;;;4652485;30;20865;-75
2024/02/14 06:09:09;;;;;;;2.63;0.70;;;13.90;71.00;;;;;;4657850;30;20049;-74
2024/02/14 06:11:54;;;;;;;2.90;0.60;;;13.90;71.00;;;;;;4642684;30;20060;-75
2024/02/14 06:14:39;;;;;;;2.92;0.60;;;13.90;71.00;;;;;;4655309;30;20109;-75
2024/02/14 06:17:23;;;;;;;0.88;0.40;;;13.90;71.00;;;;;;4653986;30;20515;-75
2024/02/14 06:20:09;;;;;;;1.40;0.75;;;13.90;71.00;;;;;;4642748;30;20108;-76
2024/02/14 06:22:54;;;;;;;2.03;0.60;;;13.90;71.00;;;;;;4655889;30;20547;-75
2024/02/14 06:25:39;;;;;;;4.13;1.58;;;14.00;71.20;;;;;;4649419;30;20098;-73
2024/02/14 06:28:23;;;;;;;0.70;0.40;;;13.90;71.10;;;;;;4656207;30;20061;-74
2024/02/14 06:31:08;;;;;;;0.90;0.40;;;14.00;71.30;;;;;;4652881;30;20483;-75
2024/02/14 06:33:52;;;;;;;2.17;0.55;;;14.00;71.50;;;;;;4652915;30;21084;-75
2024/02/14 06:36:37;;;;;;;1.02;0.40;;;14.00;71.50;;;;;;4654607;30;20050;-74
2024/02/14 06:39:22;;;;;;;6.43;0.50;;;14.10;71.80;;;;;;4639841;30;20147;-74
2024/02/14 06:42:07;;;;;;;2.25;0.82;;;14.10;71.70;;;;;;4626883;30;20137;-74
2024/02/14 06:44:51;;;;;;;3.50;0.50;;;14.10;71.70;;;;;;4637892;30;20561;-74
2024/02/14 06:47:36;;;;;;;24.60;4.82;;;14.20;72.00;;;;;;4651954;30;20181;-74
2024/02/14 06:50:21;;;;;;;6.85;1.67;;;14.20;72.10;;;;;;4636930;30;20049;-73
2024/02/14 06:53:06;;;;;;;20.38;5.80;;;14.20;72.20;;;;;;4651446;30;20069;-74
2024/02/14 06:55:51;;;;;;;13.57;3.88;;;14.30;72.40;;;;;;4638005;30;20120;-74
2024/02/14 06:58:36;;;;;;;17.88;3.55;;;14.30;72.50;;;;;;4653044;30;20043;-74
2024/02/14 07:01:23;;;;;;;11.13;4.57;;;14.30;72.60;;;;;;4637913;30;20119;-74
2024/02/14 07:04:08;;;;;;;10.43;3.35;;;14.40;72.80;;;;;;4650239;30;20062;-74
2024/02/14 07:06:55;;;;;;;14.63;3.22;;;14.40;72.90;;;;;;4624870;30;20057;-78
2024/02/14 07:09:40;;;;;;;17.42;3.55;;;14.40;73.00;;;;;;4638246;30;20065;-74
2024/02/14 07:12:25;;;;;;;10.40;2.90;;;14.40;73.10;;;;;;4649257;30;20064;-75
2024/02/14 07:15:11;;;;;;;11.35;2.70;;;14.40;73.20;;;;;;4636610;30;20423;-77
2024/02/14 07:17:55;;;;;;;11.32;2.75;;;14.50;73.50;;;;;;4646828;30;20053;-75
2024/02/14 07:20:40;;;;;;;7.82;2.45;;;14.50;73.50;;;;;;4640550;30;20134;-75
2024/02/14 07:23:26;;;;;;;8.15;2.28;;;14.50;73.50;;;;;;4648540;30;20430;-76
2024/02/14 07:26:11;;;;;;;7.28;2.35;;;14.50;73.60;;;;;;4650824;30;20066;-75
2024/02/14 07:28:56;;;;;;;8.48;2.33;;;14.40;73.50;;;;;;4649394;30;20125;-75
2024/02/14 07:31:41;;;;;;;9.40;2.08;;;14.40;73.60;;;;;;4646645;30;20435;-76
2024/02/14 07:34:25;;;;;;;6.60;1.73;;;14.40;73.60;;;;;;4648499;30;20385;-74
2024/02/14 07:37:15;;;;;;;6.93;2.20;;;14.40;73.60;;;;;;4637801;30;20076;-75
2024/02/14 07:39:59;;;;;;;5.38;2.72;;;14.40;73.60;;;;;;4638184;30;20061;-76
2024/02/14 07:42:44;;;;;;;9.77;1.45;;;14.40;73.70;;;;;;4641844;30;20049;-77
2024/02/14 07:45:29;;;;;;;5.80;1.75;;;14.40;73.70;;;;;;4655952;30;20057;-77
2024/02/14 07:48:13;;;;;;;5.72;1.70;;;14.40;73.80;;;;;;4650363;30;20117;-75
2024/02/14 07:50:59;;;;;;;4.13;1.60;;;14.40;73.90;;;;;;4647945;30;20415;-76
2024/02/14 07:53:43;;;;;;;7.88;1.48;;;14.50;74.10;;;;;;4638705;30;20133;-76
2024/02/14 07:56:28;;;;;;;3.20;1.52;;;14.50;74.10;;;;;;4634034;30;20048;-76
2024/02/14 07:59:13;;;;;;;3.50;1.08;;;14.50;74.10;;;;;;4657167;30;20543;-76
2024/02/14 08:01:58;;;;;;;4.05;1.55;;;14.60;74.40;;;;;;4640051;30;20199;-76
2024/02/14 08:04:42;;;;;;;4.18;1.23;;;14.60;74.40;;;;;;4650127;30;20095;-75
2024/02/14 08:07:27;;;;;;;5.00;1.27;;;14.60;74.40;;;;;;4620488;30;20427;-74
2024/02/14 08:10:12;;;;;;;2.88;1.10;;;14.60;74.50;;;;;;4649747;30;20076;-73
2024/02/14 08:12:56;;;;;;;5.70;1.30;;;14.70;75.00;;;;;;4638194;30;20042;-74
2024/02/14 08:15:41;;;;;;;3.30;1.10;;;14.80;75.30;;;;;;4653359;30;20077;-74
2024/02/14 08:18:27;;;;;;;6.43;1.88;;;15.00;75.60;;;;;;4634156;30;20137;-74
2024/02/14 08:21:12;;;;;;;2.10;1.05;;;15.10;75.50;;;;;;4638751;30;20053;-73
2024/02/14 08:23:56;;;;;;;2.70;1.33;;;15.30;75.60;;;;;;4650315;30;20101;-74
2024/02/14 08:26:40;;;;;;;2.08;0.70;;;15.50;75.70;;;;;;4635839;30;20226;-74
2024/02/14 08:29:25;;;;;;;3.05;0.80;;;15.70;75.70;;;;;;4649457;30;20053;-74
2024/02/14 08:32:10;;;;;;;1.80;0.47;;;15.80;75.50;;;;;;4638854;30;20050;-73
2024/02/14 08:34:55;;;;;;;2.83;1.10;;;15.90;75.40;;;;;;4650346;30;20641;-73
2024/02/14 08:37:40;;;;;;;2.17;0.60;;;16.10;75.40;;;;;;4645724;30;20109;-73
2024/02/14 08:40:25;;;;;;;1.27;0.73;;;16.20;75.30;;;;;;4637488;30;20168;-74
2024/02/14 08:43:11;;;;;;;2.33;0.70;;;16.30;75.20;;;;;;4650215;30;20102;-74
2024/02/14 08:45:56;;;;;;;2.33;0.55;;;16.40;75.00;;;;;;4654263;30;20060;-73
2024/02/14 08:48:45;;;;;;;1.15;0.77;;;16.50;74.90;;;;;;4646752;30;20282;-73
2024/02/14 08:51:30;;;;;;;1.92;0.70;;;16.60;74.80;;;;;;4646835;30;20057;-74
2024/02/14 08:54:17;;;;;;;2.42;0.77;;;16.70;74.80;;;;;;4631058;30;20368;-74
2024/02/14 08:57:02;;;;;;;3.72;1.52;;;16.80;74.70;;;;;;4644662;30;20585;-73
2024/02/14 08:59:48;;;;;;;3.58;0.95;;;16.90;74.60;;;;;;4635778;30;20085;-74
2024/02/14 09:02:34;;;;;;;3.78;0.60;;;16.90;74.40;;;;;;4649595;30;20452;-74
2024/02/14 09:05:19;;;;;;;0.93;0.30;;;17.10;74.40;;;;;;4636341;30;20533;-73
2024/02/14 09:08:04;;;;;;;2.28;1.25;;;17.20;74.20;;;;;;4638292;30;20077;-73
2024/02/14 09:10:48;;;;;;;1.05;0.57;;;17.20;74.00;;;;;;4636043;30;20057;-73
2024/02/14 09:13:33;;;;;;;1.77;0.70;;;17.30;74.00;;;;;;4635495;30;20356;-74
2024/02/14 09:16:18;;;;;;;1.50;0.60;;;17.30;73.80;;;;;;4637155;30;20125;-75
2024/02/14 09:19:05;;;;;;;1.30;0.50;;;17.30;73.70;;;;;;4636742;30;20081;-74
2024/02/14 09:21:49;;;;;;;2.05;0.70;;;17.30;73.50;;;;;;4650463;30;20058;-73
2024/02/14 09:24:34;;;;;;;1.95;0.40;;;17.40;73.60;;;;;;4650589;30;20058;-74
2024/02/14 09:27:19;;;;;;;0.98;0.40;;;17.40;73.50;;;;;;4640158;30;20045;-74
2024/02/14 09:30:06;;;;;;;2.00;0.32;;;17.40;73.40;;;;;;4650245;30;20073;-74
2024/02/14 09:32:50;;;;;;;2.88;0.50;;;17.50;74.00;;;;;;4639354;30;20053;-74
2024/02/14 09:35:37;;;;;;;2.08;0.43;;;17.50;73.30;;;;;;4649505;30;20077;-74
2024/02/14 09:38:22;;;;;;;0.55;0.30;;;17.40;73.00;;;;;;4640718;30;20054;-74
2024/02/14 09:41:19;;;;;;;0.82;0.43;;;17.50;73.10;;;;;;4641176;30;20073;-74
2024/02/14 09:44:03;;;;;;;0.43;0.40;;;17.50;72.90;;;;;;4654002;30;20093;-74
2024/02/14 09:46:49;;;;;;;0.43;0.30;;;17.50;72.80;;;;;;4651491;30;20609;-74
2024/02/14 09:49:36;;;;;;;2.38;0.45;;;17.50;72.60;;;;;;4647259;30;20547;-74
2024/02/14 09:52:22;;;;;;;0.55;0.30;;;17.60;72.70;;;;;;4654813;30;20116;-74
2024/02/14 09:55:08;;;;;;;0.93;0.40;;;17.60;72.60;;;;;;4646260;30;20081;-74
2024/02/14 09:57:54;;;;;;;0.63;0.30;;;17.60;72.50;;;;;;4644090;30;20069;-74
2024/02/14 10:00:40;;;;;;;1.05;0.50;;;17.60;72.40;;;;;;4645519;30;20141;-73
2024/02/14 10:03:25;;;;;;;0.80;0.30;;;17.60;72.40;;;;;;4655340;30;20542;-73
2024/02/14 10:06:10;;;;;;;1.00;0.40;;;17.60;72.30;;;;;;4651422;30;20574;-74
2024/02/14 10:08:56;;;;;;;2.10;0.40;;;17.60;72.20;;;;;;4627768;30;20309;-74
2024/02/14 10:11:40;;;;;;;0.40;0.32;;;17.70;72.40;;;;;;4632216;30;20141;-74
2024/02/14 10:14:24;;;;;;;0.98;0.38;;;17.70;72.30;;;;;;4644706;30;20096;-74
2024/02/14 10:17:16;;;;;;;0.55;0.20;;;17.70;72.10;;;;;;4646274;30;20049;-73
2024/02/14 10:20:05;;;;;;;0.50;0.20;;;17.70;72.00;;;;;;4650508;30;20093;-74
2024/02/14 10:23:04;;;;;;;1.13;0.40;;;17.70;71.80;;;;;;4652386;30;20547;-74
2024/02/14 10:25:55;;;;;;;0.70;0.30;;;17.80;71.80;;;;;;4648331;30;20050;-74
2024/02/14 10:28:43;;;;;;;0.40;0.20;;;17.80;71.70;;;;;;4650168;30;20057;-74
2024/02/14 10:31:28;;;;;;;0.63;0.20;;;18.00;71.90;;;;;;4653861;30;20155;-74
2024/02/14 10:34:13;;;;;;;0.38;0.30;;;18.00;71.80;;;;;;4658841;30;20109;-75
2024/02/14 10:36:59;;;;;;;0.30;0.20;;;18.00;71.50;;;;;;4657714;30;20091;-74
2024/02/14 10:39:47;;;;;;;0.57;0.30;;;18.10;71.50;;;;;;4657767;30;20089;-75
2024/02/14 10:42:32;;;;;;;0.65;0.30;;;18.20;71.40;;;;;;4652349;30;20125;-74
2024/02/14 10:45:16;;;;;;;0.28;0.28;;;18.30;71.30;;;;;;4625356;30;20530;-74
2024/02/14 10:48:03;;;;;;;1.58;0.28;;;18.40;71.20;;;;;;4634440;30;20063;-74
2024/02/14 10:50:50;;;;;;;0.40;0.30;;;18.40;71.10;;;;;;4630795;30;20142;-76
2024/02/14 10:53:35;;;;;;;1.63;0.20;;;18.50;71.10;;;;;;4656323;30;20115;-74
2024/02/14 10:56:19;;;;;;;0.40;0.20;;;18.40;70.90;;;;;;4631101;30;20125;-74
2024/02/14 10:59:06;;;;;;;1.60;0.50;;;18.50;71.00;;;;;;4635882;30;20058;-75
2024/02/14 11:01:52;;;;;;;0.73;0.20;;;18.50;70.80;;;;;;4661327;30;20129;-74
2024/02/14 11:04:37;;;;;;;0.82;0.30;;;18.50;70.70;;;;;;4637482;30;20181;-75
2024/02/14 11:07:25;;;;;;;1.05;0.40;;;18.50;70.70;;;;;;4647314;30;20509;-74
2024/02/14 11:10:14;;;;;;;0.57;0.30;;;18.60;70.70;;;;;;4651733;30;20073;-74
2024/02/14 11:13:01;;;;;;;0.90;0.38;;;18.70;70.80;;;;;;4641033;30;20081;-74
2024/02/14 11:15:46;;;;;;;0.47;0.40;;;18.70;70.60;;;;;;4648425;30;20314;-74
2024/02/14 11:18:33;;;;;;;0.40;0.40;;;18.70;70.50;;;;;;4641478;30;20145;-74
2024/02/14 11:21:17;;;;;;;0.20;0.20;;;18.70;70.50;;;;;;4638103;30;20510;-73
2024/02/14 11:24:09;;;;;;;1.10;0.30;;;18.70;70.40;;;;;;4637653;30;20137;-73
2024/02/14 11:26:56;;;;;;;1.00;0.28;;;18.70;70.30;;;;;;4651480;30;20479;-73
2024/02/14 11:29:43;;;;;;;0.47;0.30;;;18.70;70.30;;;;;;4651960;30;20334;-73
2024/02/14 11:32:28;;;;;;;0.47;0.25;;;18.80;70.70;;;;;;4639658;30;20074;-73
2024/02/14 11:35:12;;;;;;;1.15;0.50;;;18.80;70.30;;;;;;4642830;30;20145;-74
2024/02/14 11:38:00;;;;;;;0.50;0.30;;;18.90;70.30;;;;;;4649647;30;20548;-73
2024/02/14 11:40:45;;;;;;;0.80;0.30;;;18.90;70.20;;;;;;4628035;30;20041;-73
2024/02/14 11:43:30;;;;;;;1.05;0.30;;;18.90;70.10;;;;;;4634730;30;20151;-73
2024/02/14 11:46:15;;;;;;;0.20;0.20;;;19.00;70.20;;;;;;4634426;30;20046;-74
2024/02/14 11:49:01;;;;;;;0.75;0.40;;;19.00;70.10;;;;;;4632928;30;20069;-73
2024/02/14 11:51:47;;;;;;;0.57;0.40;;;19.10;70.20;;;;;;4651042;30;20141;-73
2024/02/14 11:54:33;;;;;;;0.75;0.30;;;19.10;70.60;;;;;;4648473;30;20079;-76
2024/02/14 11:57:19;;;;;;;0.22;0.20;;;19.20;70.10;;;;;;4637760;30;20108;-73
2024/02/14 12:00:04;;;;;;;1.35;0.40;;;19.20;70.10;;;;;;4638428;30;20053;-73
2024/02/14 12:02:54;;;;;;;0.85;0.30;;;19.20;70.00;;;;;;4642311;30;20342;-76
2024/02/14 12:05:39;;;;;;;0.30;0.30;;;19.30;70.00;;;;;;4651832;30;20176;-74
2024/02/14 12:08:24;;;;;;;0.45;0.35;;;19.30;69.90;;;;;;4641173;30;20049;-76
2024/02/14 12:11:08;;;;;;;1.85;0.52;;;19.30;69.90;;;;;;4651334;30;20186;-73
2024/02/14 12:13:53;;;;;;;9.68;1.85;;;19.40;69.90;;;;;;4649348;30;20574;-76
2024/02/14 12:16:40;;;;;;;6.97;1.80;;;19.50;70.00;;;;;;4632046;30;20391;-76
2024/02/14 12:19:24;;;;;;;8.50;2.20;;;19.60;70.00;;;;;;4637342;30;20093;-76
2024/02/14 12:22:17;;;;;;;3.20;1.27;;;19.70;70.00;;;;;;4646428;30;20053;-76
2024/02/14 12:25:02;;;;;;;1.38;0.82;;;19.80;69.90;;;;;;4651412;30;20077;-75
2024/02/14 12:27:51;;;;;;;2.00;0.93;;;20.00;70.00;;;;;;4649817;30;20475;-75
2024/02/14 12:30:56;;;;;;;3.30;1.05;;;20.00;69.70;;;;;;4649848;30;20083;-75
2024/02/14 12:33:40;;;;;;;2.58;0.90;;;20.00;69.60;;;;;;4638444;30;20097;-75
2024/02/14 12:36:25;;;;;;;5.65;0.98;;;20.00;69.60;;;;;;4651402;30;20077;-76
2024/02/14 12:39:12;;;;;;;3.88;1.02;;;20.00;69.60;;;;;;4649949;30;20065;-76
2024/02/14 12:41:56;;;;;;;3.55;0.80;;;20.00;69.60;;;;;;4645211;30;20082;-75
2024/02/14 12:44:41;;;;;;;2.65;0.80;;;19.90;69.50;;;;;;4634263;30;20040;-75
2024/02/14 12:47:31;;;;;;;1.95;0.80;;;19.90;69.50;;;;;;4650198;30;20053;-75
2024/02/14 12:50:15;;;;;;;4.32;1.88;;;20.00;69.60;;;;;;4644217;30;20077;-75
2024/02/14 12:53:02;;;;;;;1.95;1.08;;;20.00;69.60;;;;;;4650394;30;20112;-76
2024/02/14 12:55:47;;;;;;;1.48;0.45;;;19.90;69.40;;;;;;4636547;30;20061;-75
2024/02/14 12:58:32;;;;;;;1.88;0.60;;;19.90;69.40;;;;;;4649832;30;20694;-75
2024/02/14 13:01:17;;;;;;;1.77;0.77;;;20.00;69.60;;;;;;4640776;30;20049;-75
2024/02/14 13:04:05;;;;;;;1.50;0.70;;;20.10;69.60;;;;;;4652753;30;20053;-75
2024/02/14 13:06:49;;;;;;;2.30;1.17;;;20.10;69.40;;;;;;4650113;30;20141;-75
2024/02/14 13:09:34;;;;;;;2.88;0.80;;;20.20;69.30;;;;;;4644324;30;20126;-73
2024/02/14 13:12:18;;;;;;;1.55;0.70;;;20.30;69.40;;;;;;4654000;30;20085;-73
2024/02/14 13:15:04;;;;;;;2.15;0.60;;;20.30;69.10;;;;;;4647694;30;20544;-76
2024/02/14 13:17:49;;;;;;;1.60;0.65;;;20.40;69.10;;;;;;4640583;30;20045;-74
2024/02/14 13:20:33;;;;;;;2.50;1.08;;;20.50;69.10;;;;;;4654062;30;20101;-76
2024/02/14 13:23:18;;;;;;;1.75;0.55;;;20.50;68.90;;;;;;4640782;30;20049;-75
2024/02/14 13:26:03;;;;;;;0.95;0.60;;;20.60;69.10;;;;;;4639042;30;20127;-75
2024/02/14 13:28:48;;;;;;;1.40;0.70;;;20.60;68.90;;;;;;4653603;30;20109;-75
2024/02/14 13:31:32;;;;;;;2.05;0.50;;;20.70;68.90;;;;;;4653451;30;20157;-75
2024/02/14 13:34:19;;;;;;;1.83;0.95;;;20.80;68.90;;;;;;4639979;30;20079;-76
2024/02/14 13:37:04;;;;;;;3.05;0.85;;;20.90;68.80;;;;;;4654162;30;20107;-75
2024/02/14 13:39:48;;;;;;;1.90;0.50;;;20.90;68.60;;;;;;4655217;30;20561;-74
2024/02/14 13:42:33;;;;;;;2.15;0.60;;;21.00;68.60;;;;;;4640341;30;20137;-75
2024/02/14 13:45:18;;;;;;;4.75;2.83;;;21.10;68.60;;;;;;4649852;30;20069;-77
2024/02/14 13:48:07;;;;;;;2.47;1.00;;;21.10;68.40;;;;;;4645355;30;20050;-75
2024/02/14 13:50:52;;;;;;;0.85;0.77;;;21.20;68.50;;;;;;4652995;30;20069;-74
2024/02/14 13:53:36;;;;;;;2.75;0.80;;;21.20;68.60;;;;;;4654539;30;20069;-74
2024/02/14 13:56:22;;;;;;;1.00;0.70;;;21.20;68.60;;;;;;4652053;30;20095;-74
2024/02/14 13:59:07;;;;;;;1.27;0.50;;;21.10;68.50;;;;;;4654247;30;20052;-75
2024/02/14 14:01:51;;;;;;;1.80;0.52;;;21.10;68.60;;;;;;4638732;30;20066;-74
2024/02/14 14:04:36;;;;;;;1.33;0.50;;;21.10;68.70;;;;;;4652629;30;20105;-75
2024/02/14 14:07:22;;;;;;;0.40;0.40;;;21.00;68.50;;;;;;4642303;30;20053;-75
2024/02/14 14:10:09;;;;;;;1.88;0.75;;;21.00;68.80;;;;;;4627909;30;20069;-75
2024/02/14 14:12:54;;;;;;;3.00;1.67;;;20.90;68.40;;;;;;4651667;30;20134;-75
2024/02/14 14:15:39;;;;;;;2.65;1.05;;;20.90;68.50;;;;;;4639022;30;20587;-75
2024/02/14 14:18:23;;;;;;;0.98;0.57;;;20.80;68.40;;;;;;4656377;30;20189;-75